Tulalip, WA

11:19 PM PDT on October 25, 2014 (GMT -0700)
Kruse Junction | Change Station
CLOSE
Current Station
Personal Weather Station
Location: North Marysville, WA
Elevation: 85 ft
Nearby Weather Stations
Active Advisory: High Wind Warning Active Notice: Public Information Statement

Elev 85 ft 48.11 °N, 122.17 °W | Updated 5 minutes ago

Mostly Cloudy
Mostly Cloudy
51.8 °F
Feels Like 51.8 °F
N
1.0
Wind Variable Wind from SW
Gusts 5.0 mph

Today
High -- | Low -- °F
--% Chance of Precip.
Yesterday
High -- | Low -- °F
Precip. -- in
7:43 AM 6:01 PM
Waxing Crescent, 6% visible
Pressure 29.70 in
Visibility 10.0 miles
Clouds Few 2000 ft
Scattered Clouds 3800 ft
Mostly Cloudy 5000 ft
Dew Point 50 °F
Humidity 95%
Rainfall -999.00 in
Snow Depth Not available.
UV 0 out of 12
Pollen .40 out of 12
PM2.5 Good
Flu Activity Sporadic
METAR KAWO 260615Z AUTO 16007KT 10SM FEW020 SCT038 BKN050 11/08 A2970 RMK AO1

More Conditions Fewer Conditions

Pressure 29.70 in
Visibility 10.0 miles
Clouds Few 2000 ft
Scattered Clouds 3800 ft
Mostly Cloudy 5000 ft
Dew Point 50 °F
Humidity 95%
Rainfall -999.00 in
Snow Depth Not available.
UV 0 out of 12
Pollen .40 out of 12
PM2.5 Good
Flu Activity Sporadic
METAR KAWO 260615Z AUTO 16007KT 10SM FEW020 SCT038 BKN050 11/08 A2970 RMK AO1

More Conditions Fewer Conditions

10-Day Weather Forecast

Almanac

Astronomy

Oct. 25, 2014 Rise Set
Actual Time 7:43 AM PDT 6:01 PM PDT
Civil Twilight 7:11 AM PDT 6:33 PM PDT
Nautical Twilight 6:35 AM PDT 7:09 PM PDT
Astronomical Twilight 5:59 AM PDT 7:45 PM PDT
Moon 9:33 AM PDT (10/25) 7:21 PM PDT (10/25)
Length of Visible Light 11h 22m
Length of Day
10h 18m
Tomorrow will be 3m 16s shorter.
Waxing Crescent, 6% of the Moon is Illuminated
Oct 26
Waxing Crescent
Oct 30
First Quarter
Nov 6
Full
Nov 14
Last Quarter
Nov 22
New

Community

WunderPhotos

Upload Photos

1,765,113 photos uploaded!

Nearby

Air Quality

  Air Quality AQ Index Pollutant
Yesterday Good
PM2.5
Current Good
PM2.5
Saturday Good
PM2.5
Sunday Good
PM2.5
Monday Good
PM2.5
Tuesday Good
PM2.5
Wednesday Good
PM2.5

Snow Depth

Station Depth Elevation
Alpine Meadows 0 in 3500 ft
Dungeness 0 in 4100 ft
Mf Nooksack 2 in 4980 ft
Wells Creek 0 in 4200 ft
Stevens Pass 0 in 4070 ft

Earthquake Activity

City Distance Mag. Time & Date
Birch Bay, Washington 57 miles 2.8 3:02 AM PDT
2014-10-24
Minimum magnitude displayed is 2.5.

Coastal Water Temperatures

Place Temperature
Port Townsend, WA 53.1 °F
Seattle, WA 55.0 °F
Friday Harbor, WA 51.1 °F
Tacoma, WA 54.0 °F

Nearby Weather Stations